Rorichmoor — V2BV7 — position and weather

sailwx.info

Track history (hours):
 
Tides and Currents Weather Stations Pressure Air Temp Water Temp Dewpoint Dewpoint Depression Visibility Wind Speed Wind Dir Waves Ship Positions

Rorichmoor

Last reported at 2015-Jul-06 17:31 UTC. Time now 2015-Jul-06 17:49 UTC.
Position N 44°24' E 008°54'.

Length 80 m; draft 4.4 m.

Type: Cargo ship. MMSI: 304938000.

Date/timePositionNaut miles runAvg speedWind from/ knotsBaromVisibWave heightAir tempDewpointWater temp
2015-Jul-06 17:31N 44°24' E 008°54'3 3.2
2015-Jul-06 16:33N 44°22' E 008°58'6 5.6
2015-Jul-06 15:33N 44°17' E 008°55'76 9.1
2015-Jul-06 07:11N 43°27' E 007°35'7 9.1
2015-Jul-06 06:24N 43°23' E 007°27'8 8.9
2015-Jul-06 05:33N 43°18' E 007°18'9 8.9
2015-Jul-06 04:33N 43°13' E 007°08'9 8.6
2015-Jul-06 03:33N 43°08' E 006°59'9 8.6
2015-Jul-06 02:33N 43°03' E 006°49'8 8.3
2015-Jul-06 01:33N 42°59' E 006°39'35 8.8
2015-Jul-05 21:33N 42°59' E 005°51'10 9.6
2015-Jul-05 20:33N 43°03' E 005°39'14 9.5
2015-Jul-05 19:07N 43°07' E 005°21'5 9.5
2015-Jul-05 18:33N 43°09' E 005°14'9 9.5
2015-Jul-05 17:33N 43°12' E 005°02'9 8.8
2015-Jul-05 16:33N 43°20' E 004°58'7 6.9
2015-Jul-05 15:33N 43°23' E 004°50'1 1.0
2015-Jul-05 14:33N 43°23' E 004°49'5 4.8
2015-Jul-05 13:32N 43°26' E 004°44'16 2.5
2015-Jul-05 07:09N 43°42' E 004°38'0 0.0
2015-Jul-05 06:27N 43°42' E 004°38'0 0.0
2015-Jul-05 05:30N 43°42' E 004°38'0 0.0
2015-Jul-05 04:33N 43°42' E 004°38'0 0.0
2015-Jul-05 03:33N 43°42' E 004°38'0 0.0
2015-Jul-05 02:33N 43°42' E 004°38'0 0.0
2015-Jul-05 01:33N 43°42' E 004°38'0 0.0
2015-Jul-05 00:30N 43°42' E 004°38'0 0.0
2015-Jul-04 22:33N 43°42' E 004°38'0 0.0
2015-Jul-04 21:33N 43°42' E 004°38'0 0.0
2015-Jul-04 20:33N 43°42' E 004°38'16 4.0
2015-Jul-04 16:33N 43°26' E 004°44'5 4.6
2015-Jul-04 15:33N 43°23' E 004°48'0 0.0
2015-Jul-04 14:34N 43°23' E 004°48'0 0.2
2015-Jul-04 13:34N 43°23' E 004°48'7 7.0
2015-Jul-04 12:33N 43°22' E 004°58'7 7.4
2015-Jul-04 11:33N 43°15' E 005°01'9 8.9
2015-Jul-04 10:33N 43°09' E 005°10'10 9.9
2015-Jul-04 09:33N 43°03' E 005°22'1010.5
2015-Jul-04 08:33N 42°58' E 005°34'1111.0
2015-Jul-04 07:33N 42°51' E 005°46'1111.1
2015-Jul-04 06:33N 42°46' E 005°59'3310.8
2015-Jul-04 03:33N 42°28' E 006°36'1510.7
2015-Jul-04 02:10N 42°20' E 006°53'161 9.7
2015-Jul-03 09:33N 41°07' E 010°06'21 9.8
2015-Jul-03 07:26N 40°56' E 010°29'8210.3
2015-Jul-02 23:29N 40°13' E 012°01'3010.3
2015-Jul-02 20:34N 39°58' E 012°34'4110.3
2015-Jul-02 16:31N 39°36' E 013°20'1010.3
2015-Jul-02 15:31N 39°31' E 013°32'11210.1
2015-Jul-02 04:28N 38°27' E 015°30'9 9.6
2015-Jul-02 03:31N 38°21' E 015°39'7 7.3
2015-Jul-02 02:33N 38°14' E 015°38'10 9.8
2015-Jul-02 01:34N 38°05' E 015°36'1010.3
2015-Jul-02 00:32N 37°55' E 015°33'14 9.9
2015-Jul-01 23:08N 37°41' E 015°29'6 9.9
2015-Jul-01 22:32N 37°35' E 015°28'57 1.3
2015-Jun-30 01:28N 36°39' E 015°17'7 7.3
2015-Jun-30 00:33N 36°35' E 015°11'9 9.3
2015-Jun-29 23:33N 36°35' E 014°59'9 9.4
2015-Jun-29 22:33N 36°35' E 014°47'10 9.8
2015-Jun-29 21:33N 36°37' E 014°35'10 9.8
2015-Jun-29 20:33N 36°40' E 014°24'9 9.5
2015-Jun-29 19:33N 36°44' E 014°13'9 9.3
2015-Jun-29 18:33N 36°48' E 014°02'9 9.0
2015-Jun-29 17:33N 36°52' E 013°52'10 9.7
2015-Jun-29 16:33N 36°56' E 013°41'3 2.4
2015-Jun-29 15:26N 36°57' E 013°38'3 3.1
2015-Jun-29 14:31N 36°57' E 013°35'9 9.1
2015-Jun-29 13:33N 37°01' E 013°25'70 8.7
2015-Jun-29 05:33N 37°29' E 012°04'10 9.1
2015-Jun-29 04:30N 37°32' E 011°53'414 9.5
2015-Jun-27 09:08N 39°53' E 003°35'35 9.8
2015-Jun-27 05:31N 40°13' E 002°56'10 9.8
2015-Jun-27 04:33N 40°18' E 002°46'10 9.6
2015-Jun-27 03:33N 40°23' E 002°35'10 9.8
2015-Jun-27 02:29N 40°29' E 002°24'9 9.7
2015-Jun-27 01:32N 40°34' E 002°14'9 9.4
2015-Jun-27 00:33N 40°39' E 002°04'10 9.4
2015-Jun-26 23:32N 40°44' E 001°53'9 9.4
2015-Jun-26 22:33N 40°50' E 001°43'10 9.4
2015-Jun-26 21:30N 40°55' E 001°32'12 9.4
2015-Jun-26 20:14N 41°01' E 001°18'6 8.0
2015-Jun-26 19:30N 41°05' E 001°13'  
Track history (hours):
 
Tides and Currents Weather Stations Pressure Air Temp Water Temp Dewpoint Dewpoint Depression Visibility Wind Speed Wind Dir Waves Ship Positions

Rorichmoor

Last reported at 2015-Jul-06 17:31 UTC. Time now 2015-Jul-06 17:49 UTC.
Position N 44°24' E 008°54'.

Length 80 m; draft 4.4 m.

Type: Cargo ship. MMSI: 304938000.

Date/timePositionNaut miles runAvg speedWind from/ knotsBaromVisibWave heightAir tempDewpointWater temp
2015-Jul-06 17:31N 44°24' E 008°54'3 3.2
2015-Jul-06 16:33N 44°22' E 008°58'6 5.6
2015-Jul-06 15:33N 44°17' E 008°55'76 9.1
2015-Jul-06 07:11N 43°27' E 007°35'7 9.1
2015-Jul-06 06:24N 43°23' E 007°27'8 8.9
2015-Jul-06 05:33N 43°18' E 007°18'9 8.9
2015-Jul-06 04:33N 43°13' E 007°08'9 8.6
2015-Jul-06 03:33N 43°08' E 006°59'9 8.6
2015-Jul-06 02:33N 43°03' E 006°49'8 8.3
2015-Jul-06 01:33N 42°59' E 006°39'35 8.8
2015-Jul-05 21:33N 42°59' E 005°51'10 9.6
2015-Jul-05 20:33N 43°03' E 005°39'14 9.5
2015-Jul-05 19:07N 43°07' E 005°21'5 9.5
2015-Jul-05 18:33N 43°09' E 005°14'9 9.5
2015-Jul-05 17:33N 43°12' E 005°02'9 8.8
2015-Jul-05 16:33N 43°20' E 004°58'7 6.9
2015-Jul-05 15:33N 43°23' E 004°50'1 1.0
2015-Jul-05 14:33N 43°23' E 004°49'5 4.8
2015-Jul-05 13:32N 43°26' E 004°44'16 2.5
2015-Jul-05 07:09N 43°42' E 004°38'0 0.0
2015-Jul-05 06:27N 43°42' E 004°38'0 0.0
2015-Jul-05 05:30N 43°42' E 004°38'0 0.0
2015-Jul-05 04:33N 43°42' E 004°38'0 0.0
2015-Jul-05 03:33N 43°42' E 004°38'0 0.0
2015-Jul-05 02:33N 43°42' E 004°38'0 0.0
2015-Jul-05 01:33N 43°42' E 004°38'0 0.0
2015-Jul-05 00:30N 43°42' E 004°38'0 0.0
2015-Jul-04 22:33N 43°42' E 004°38'0 0.0
2015-Jul-04 21:33N 43°42' E 004°38'0 0.0
2015-Jul-04 20:33N 43°42' E 004°38'16 4.0
2015-Jul-04 16:33N 43°26' E 004°44'5 4.6
2015-Jul-04 15:33N 43°23' E 004°48'0 0.0
2015-Jul-04 14:34N 43°23' E 004°48'0 0.2
2015-Jul-04 13:34N 43°23' E 004°48'7 7.0
2015-Jul-04 12:33N 43°22' E 004°58'7 7.4
2015-Jul-04 11:33N 43°15' E 005°01'9 8.9
2015-Jul-04 10:33N 43°09' E 005°10'10 9.9
2015-Jul-04 09:33N 43°03' E 005°22'1010.5
2015-Jul-04 08:33N 42°58' E 005°34'1111.0
2015-Jul-04 07:33N 42°51' E 005°46'1111.1
2015-Jul-04 06:33N 42°46' E 005°59'3310.8
2015-Jul-04 03:33N 42°28' E 006°36'1510.7
2015-Jul-04 02:10N 42°20' E 006°53'161 9.7
2015-Jul-03 09:33N 41°07' E 010°06'21 9.8
2015-Jul-03 07:26N 40°56' E 010°29'8210.3
2015-Jul-02 23:29N 40°13' E 012°01'3010.3
2015-Jul-02 20:34N 39°58' E 012°34'4110.3
2015-Jul-02 16:31N 39°36' E 013°20'1010.3
2015-Jul-02 15:31N 39°31' E 013°32'11210.1
2015-Jul-02 04:28N 38°27' E 015°30'9 9.6
2015-Jul-02 03:31N 38°21' E 015°39'7 7.3
2015-Jul-02 02:33N 38°14' E 015°38'10 9.8
2015-Jul-02 01:34N 38°05' E 015°36'1010.3
2015-Jul-02 00:32N 37°55' E 015°33'14 9.9
2015-Jul-01 23:08N 37°41' E 015°29'6 9.9
2015-Jul-01 22:32N 37°35' E 015°28'57 1.3
2015-Jun-30 01:28N 36°39' E 015°17'7 7.3
2015-Jun-30 00:33N 36°35' E 015°11'9 9.3
2015-Jun-29 23:33N 36°35' E 014°59'9 9.4
2015-Jun-29 22:33N 36°35' E 014°47'10 9.8
2015-Jun-29 21:33N 36°37' E 014°35'10 9.8
2015-Jun-29 20:33N 36°40' E 014°24'9 9.5
2015-Jun-29 19:33N 36°44' E 014°13'9 9.3
2015-Jun-29 18:33N 36°48' E 014°02'9 9.0
2015-Jun-29 17:33N 36°52' E 013°52'10 9.7
2015-Jun-29 16:33N 36°56' E 013°41'3 2.4
2015-Jun-29 15:26N 36°57' E 013°38'3 3.1
2015-Jun-29 14:31N 36°57' E 013°35'9 9.1
2015-Jun-29 13:33N 37°01' E 013°25'70 8.7
2015-Jun-29 05:33N 37°29' E 012°04'10 9.1
2015-Jun-29 04:30N 37°32' E 011°53'414 9.5
2015-Jun-27 09:08N 39°53' E 003°35'35 9.8
2015-Jun-27 05:31N 40°13' E 002°56'10 9.8
2015-Jun-27 04:33N 40°18' E 002°46'10 9.6
2015-Jun-27 03:33N 40°23' E 002°35'10 9.8
2015-Jun-27 02:29N 40°29' E 002°24'9 9.7
2015-Jun-27 01:32N 40°34' E 002°14'9 9.4
2015-Jun-27 00:33N 40°39' E 002°04'10 9.4
2015-Jun-26 23:32N 40°44' E 001°53'9 9.4
2015-Jun-26 22:33N 40°50' E 001°43'10 9.4
2015-Jun-26 21:30N 40°55' E 001°32'12 9.4
2015-Jun-26 20:14N 41°01' E 001°18'6 8.0
2015-Jun-26 19:30N 41°05' E 001°13'  

Dump ship's entire track history